sensor_id;sensor_type;location;lat;lon;timestamp;temperature;humidity
2639;DHT22;1329;51.384;7.122;2024-01-30T00:00:07;9.70;99.80
2639;DHT22;1329;51.384;7.122;2024-01-30T00:02:36;9.70;99.90
2639;DHT22;1329;51.384;7.122;2024-01-30T00:05:05;9.60;99.90
2639;DHT22;1329;51.384;7.122;2024-01-30T00:07:33;9.60;99.90
2639;DHT22;1329;51.384;7.122;2024-01-30T00:10:01;9.60;99.90
2639;DHT22;1329;51.384;7.122;2024-01-30T00:12:28;9.70;99.90
2639;DHT22;1329;51.384;7.122;2024-01-30T00:14:57;9.60;99.90
2639;DHT22;1329;51.384;7.122;2024-01-30T00:17:24;9.60;99.90
2639;DHT22;1329;51.384;7.122;2024-01-30T00:19:52;9.60;99.90
2639;DHT22;1329;51.384;7.122;2024-01-30T00:22:21;9.60;99.90
2639;DHT22;1329;51.384;7.122;2024-01-30T00:24:48;9.60;99.90
2639;DHT22;1329;51.384;7.122;2024-01-30T00:27:16;9.60;99.90
2639;DHT22;1329;51.384;7.122;2024-01-30T00:29:43;9.60;99.90
2639;DHT22;1329;51.384;7.122;2024-01-30T00:32:11;9.60;99.90
2639;DHT22;1329;51.384;7.122;2024-01-30T00:34:38;9.60;99.90
2639;DHT22;1329;51.384;7.122;2024-01-30T00:37:06;9.60;99.90
2639;DHT22;1329;51.384;7.122;2024-01-30T00:39:35;9.60;99.90
2639;DHT22;1329;51.384;7.122;2024-01-30T00:42:03;9.60;99.90
2639;DHT22;1329;51.384;7.122;2024-01-30T00:44:31;9.60;99.90
2639;DHT22;1329;51.384;7.122;2024-01-30T00:47:02;9.60;99.90
2639;DHT22;1329;51.384;7.122;2024-01-30T00:49:30;9.60;99.90
2639;DHT22;1329;51.384;7.122;2024-01-30T00:51:57;9.60;99.90
2639;DHT22;1329;51.384;7.122;2024-01-30T00:54:25;9.60;99.90
2639;DHT22;1329;51.384;7.122;2024-01-30T00:56:56;9.60;99.90
2639;DHT22;1329;51.384;7.122;2024-01-30T00:59:24;9.60;99.90
2639;DHT22;1329;51.384;7.122;2024-01-30T01:01:52;9.60;99.90
2639;DHT22;1329;51.384;7.122;2024-01-30T01:04:19;9.60;99.90
2639;DHT22;1329;51.384;7.122;2024-01-30T01:06:47;9.60;99.90
2639;DHT22;1329;51.384;7.122;2024-01-30T01:09:15;9.60;99.90
2639;DHT22;1329;51.384;7.122;2024-01-30T01:11:42;9.60;99.90
2639;DHT22;1329;51.384;7.122;2024-01-30T01:14:11;9.50;99.90
2639;DHT22;1329;51.384;7.122;2024-01-30T01:16:39;9.50;99.90
2639;DHT22;1329;51.384;7.122;2024-01-30T01:19:06;9.50;99.90
2639;DHT22;1329;51.384;7.122;2024-01-30T01:21:34;9.50;99.90
2639;DHT22;1329;51.384;7.122;2024-01-30T01:24:01;9.50;99.90
2639;DHT22;1329;51.384;7.122;2024-01-30T01:26:29;9.40;99.90
2639;DHT22;1329;51.384;7.122;2024-01-30T01:28:56;9.40;99.90
2639;DHT22;1329;51.384;7.122;2024-01-30T01:31:26;9.40;99.90
2639;DHT22;1329;51.384;7.122;2024-01-30T01:33:55;9.40;99.90
2639;DHT22;1329;51.384;7.122;2024-01-30T01:36:23;9.40;99.90
2639;DHT22;1329;51.384;7.122;2024-01-30T01:38:50;9.30;99.90
2639;DHT22;1329;51.384;7.122;2024-01-30T01:41:18;9.30;99.90
2639;DHT22;1329;51.384;7.122;2024-01-30T01:43:45;9.30;99.90
2639;DHT22;1329;51.384;7.122;2024-01-30T01:46:13;9.30;99.90
2639;DHT22;1329;51.384;7.122;2024-01-30T01:48:42;9.30;99.90
2639;DHT22;1329;51.384;7.122;2024-01-30T01:51:11;9.30;99.90
2639;DHT22;1329;51.384;7.122;2024-01-30T01:53:38;9.30;99.90
2639;DHT22;1329;51.384;7.122;2024-01-30T01:56:06;9.30;99.90
2639;DHT22;1329;51.384;7.122;2024-01-30T01:58:34;9.30;99.90
2639;DHT22;1329;51.384;7.122;2024-01-30T02:01:04;9.30;99.90
2639;DHT22;1329;51.384;7.122;2024-01-30T02:03:32;9.30;99.90
2639;DHT22;1329;51.384;7.122;2024-01-30T02:06:01;9.30;99.90
2639;DHT22;1329;51.384;7.122;2024-01-30T02:08:30;9.20;99.90
2639;DHT22;1329;51.384;7.122;2024-01-30T02:10:57;9.20;99.90
2639;DHT22;1329;51.384;7.122;2024-01-30T02:13:25;9.20;99.90
2639;DHT22;1329;51.384;7.122;2024-01-30T02:15:53;9.20;99.90
2639;DHT22;1329;51.384;7.122;2024-01-30T02:18:21;9.10;99.90
2639;DHT22;1329;51.384;7.122;2024-01-30T02:20:49;9.10;99.90
2639;DHT22;1329;51.384;7.122;2024-01-30T02:23:20;9.10;99.90
2639;DHT22;1329;51.384;7.122;2024-01-30T02:25:48;9.10;99.90
2639;DHT22;1329;51.384;7.122;2024-01-30T02:28:14;9.10;99.90
2639;DHT22;1329;51.384;7.122;2024-01-30T02:30:43;9.10;99.90
2639;DHT22;1329;51.384;7.122;2024-01-30T02:33:10;9.00;99.90
2639;DHT22;1329;51.384;7.122;2024-01-30T02:35:38;9.00;99.90
2639;DHT22;1329;51.384;7.122;2024-01-30T02:38:05;9.00;99.90
2639;DHT22;1329;51.384;7.122;2024-01-30T02:40:37;9.00;99.90
2639;DHT22;1329;51.384;7.122;2024-01-30T02:43:05;9.00;99.90
2639;DHT22;1329;51.384;7.122;2024-01-30T02:45:33;9.00;99.90
2639;DHT22;1329;51.384;7.122;2024-01-30T02:48:01;9.00;99.90
2639;DHT22;1329;51.384;7.122;2024-01-30T02:50:28;9.00;99.90
2639;DHT22;1329;51.384;7.122;2024-01-30T02:52:55;9.00;99.90
2639;DHT22;1329;51.384;7.122;2024-01-30T02:55:22;9.00;99.90
2639;DHT22;1329;51.384;7.122;2024-01-30T02:57:52;9.00;99.90
2639;DHT22;1329;51.384;7.122;2024-01-30T03:00:20;9.00;99.90
2639;DHT22;1329;51.384;7.122;2024-01-30T03:02:47;9.00;99.90
2639;DHT22;1329;51.384;7.122;2024-01-30T03:05:14;9.00;99.90
2639;DHT22;1329;51.384;7.122;2024-01-30T03:07:40;9.00;99.90
2639;DHT22;1329;51.384;7.122;2024-01-30T03:10:08;9.00;99.90
2639;DHT22;1329;51.384;7.122;2024-01-30T03:12:35;9.00;99.90
2639;DHT22;1329;51.384;7.122;2024-01-30T03:15:06;9.00;99.90
2639;DHT22;1329;51.384;7.122;2024-01-30T03:17:35;9.10;99.90
2639;DHT22;1329;51.384;7.122;2024-01-30T03:20:03;9.00;99.90
2639;DHT22;1329;51.384;7.122;2024-01-30T03:22:31;9.10;99.90
2639;DHT22;1329;51.384;7.122;2024-01-30T03:24:58;9.10;99.90
2639;DHT22;1329;51.384;7.122;2024-01-30T03:27:25;9.10;99.90
2639;DHT22;1329;51.384;7.122;2024-01-30T03:29:52;9.10;99.90
2639;DHT22;1329;51.384;7.122;2024-01-30T03:32:20;9.10;99.90
2639;DHT22;1329;51.384;7.122;2024-01-30T03:34:47;9.10;99.90
2639;DHT22;1329;51.384;7.122;2024-01-30T03:37:14;9.10;99.90
2639;DHT22;1329;51.384;7.122;2024-01-30T03:39:41;9.10;99.90
2639;DHT22;1329;51.384;7.122;2024-01-30T03:42:08;9.10;99.90
2639;DHT22;1329;51.384;7.122;2024-01-30T03:44:35;9.10;99.90
2639;DHT22;1329;51.384;7.122;2024-01-30T03:47:02;9.10;99.90
2639;DHT22;1329;51.384;7.122;2024-01-30T03:49:30;9.10;99.90
2639;DHT22;1329;51.384;7.122;2024-01-30T03:51:57;9.10;99.90
2639;DHT22;1329;51.384;7.122;2024-01-30T03:54:24;9.10;99.90
2639;DHT22;1329;51.384;7.122;2024-01-30T03:56:51;9.10;99.90
2639;DHT22;1329;51.384;7.122;2024-01-30T03:59:18;9.20;99.90
2639;DHT22;1329;51.384;7.122;2024-01-30T04:01:49;9.20;99.90
2639;DHT22;1329;51.384;7.122;2024-01-30T04:04:17;9.20;99.90
2639;DHT22;1329;51.384;7.122;2024-01-30T04:06:46;9.30;99.90
2639;DHT22;1329;51.384;7.122;2024-01-30T04:09:12;9.30;99.90
2639;DHT22;1329;51.384;7.122;2024-01-30T04:11:40;9.30;99.90
2639;DHT22;1329;51.384;7.122;2024-01-30T04:14:07;9.30;99.90
2639;DHT22;1329;51.384;7.122;2024-01-30T04:16:34;9.30;99.90
2639;DHT22;1329;51.384;7.122;2024-01-30T04:19:01;9.30;99.90
2639;DHT22;1329;51.384;7.122;2024-01-30T04:21:28;9.40;99.90
2639;DHT22;1329;51.384;7.122;2024-01-30T04:23:56;9.30;99.90
2639;DHT22;1329;51.384;7.122;2024-01-30T04:26:23;9.40;99.90
2639;DHT22;1329;51.384;7.122;2024-01-30T04:28:50;9.40;99.90
2639;DHT22;1329;51.384;7.122;2024-01-30T04:31:17;9.40;99.90
2639;DHT22;1329;51.384;7.122;2024-01-30T04:33:44;9.40;99.90
2639;DHT22;1329;51.384;7.122;2024-01-30T04:36:11;9.40;99.90
2639;DHT22;1329;51.384;7.122;2024-01-30T04:38:38;9.50;99.90
2639;DHT22;1329;51.384;7.122;2024-01-30T04:41:07;9.50;99.90
2639;DHT22;1329;51.384;7.122;2024-01-30T04:43:34;9.50;99.90
2639;DHT22;1329;51.384;7.122;2024-01-30T04:46:01;9.50;99.90
2639;DHT22;1329;51.384;7.122;2024-01-30T04:48:28;9.50;99.90
2639;DHT22;1329;51.384;7.122;2024-01-30T04:50:55;9.50;99.90
2639;DHT22;1329;51.384;7.122;2024-01-30T04:53:22;9.50;99.90
2639;DHT22;1329;51.384;7.122;2024-01-30T04:55:49;9.50;99.90
2639;DHT22;1329;51.384;7.122;2024-01-30T04:58:19;9.40;99.90
2639;DHT22;1329;51.384;7.122;2024-01-30T05:00:46;9.50;99.90
2639;DHT22;1329;51.384;7.122;2024-01-30T05:03:17;9.40;99.90
2639;DHT22;1329;51.384;7.122;2024-01-30T05:05:44;9.40;99.90
2639;DHT22;1329;51.384;7.122;2024-01-30T05:08:11;9.50;99.90
2639;DHT22;1329;51.384;7.122;2024-01-30T05:10:37;9.50;99.90
2639;DHT22;1329;51.384;7.122;2024-01-30T05:13:04;9.40;99.90
2639;DHT22;1329;51.384;7.122;2024-01-30T05:15:33;9.50;99.90
2639;DHT22;1329;51.384;7.122;2024-01-30T05:17:59;9.50;99.90
2639;DHT22;1329;51.384;7.122;2024-01-30T05:20:26;9.50;99.90
2639;DHT22;1329;51.384;7.122;2024-01-30T05:22:54;9.50;99.90
2639;DHT22;1329;51.384;7.122;2024-01-30T05:25:21;9.50;99.90
2639;DHT22;1329;51.384;7.122;2024-01-30T05:27:49;9.50;99.90
2639;DHT22;1329;51.384;7.122;2024-01-30T05:30:16;9.50;99.90
2639;DHT22;1329;51.384;7.122;2024-01-30T05:32:44;9.50;99.90
2639;DHT22;1329;51.384;7.122;2024-01-30T05:35:11;9.50;99.90
2639;DHT22;1329;51.384;7.122;2024-01-30T05:37:38;9.50;99.90
2639;DHT22;1329;51.384;7.122;2024-01-30T05:40:06;9.50;99.90
2639;DHT22;1329;51.384;7.122;2024-01-30T05:42:34;9.50;99.90
2639;DHT22;1329;51.384;7.122;2024-01-30T05:45:01;9.50;99.90
2639;DHT22;1329;51.384;7.122;2024-01-30T05:47:28;9.50;99.90
2639;DHT22;1329;51.384;7.122;2024-01-30T05:49:56;9.50;99.90
2639;DHT22;1329;51.384;7.122;2024-01-30T05:52:23;9.50;99.90
2639;DHT22;1329;51.384;7.122;2024-01-30T05:54:50;9.50;99.90
2639;DHT22;1329;51.384;7.122;2024-01-30T05:57:17;9.50;99.90
2639;DHT22;1329;51.384;7.122;2024-01-30T05:59:44;9.50;99.90
2639;DHT22;1329;51.384;7.122;2024-01-30T06:02:13;9.50;99.90
2639;DHT22;1329;51.384;7.122;2024-01-30T06:04:40;9.50;99.90
2639;DHT22;1329;51.384;7.122;2024-01-30T06:07:08;9.50;99.90
2639;DHT22;1329;51.384;7.122;2024-01-30T06:09:35;9.60;99.90
2639;DHT22;1329;51.384;7.122;2024-01-30T06:12:02;9.60;99.90
2639;DHT22;1329;51.384;7.122;2024-01-30T06:14:30;9.70;99.90
2639;DHT22;1329;51.384;7.122;2024-01-30T06:16:58;9.70;99.90
2639;DHT22;1329;51.384;7.122;2024-01-30T06:19:25;9.70;99.90
2639;DHT22;1329;51.384;7.122;2024-01-30T06:21:52;9.80;99.90
2639;DHT22;1329;51.384;7.122;2024-01-30T06:24:20;9.80;99.90
2639;DHT22;1329;51.384;7.122;2024-01-30T06:26:47;9.80;99.90
2639;DHT22;1329;51.384;7.122;2024-01-30T06:29:14;9.90;99.90
2639;DHT22;1329;51.384;7.122;2024-01-30T06:31:42;9.90;99.90
2639;DHT22;1329;51.384;7.122;2024-01-30T06:34:09;9.90;99.90
2639;DHT22;1329;51.384;7.122;2024-01-30T06:36:37;9.90;99.90
2639;DHT22;1329;51.384;7.122;2024-01-30T06:39:04;9.90;99.90
2639;DHT22;1329;51.384;7.122;2024-01-30T06:41:33;9.90;99.90
2639;DHT22;1329;51.384;7.122;2024-01-30T06:44:02;9.90;99.90
2639;DHT22;1329;51.384;7.122;2024-01-30T06:46:29;10.00;99.90
2639;DHT22;1329;51.384;7.122;2024-01-30T06:48:56;9.90;99.90
2639;DHT22;1329;51.384;7.122;2024-01-30T06:51:23;9.90;99.90
2639;DHT22;1329;51.384;7.122;2024-01-30T06:53:50;10.00;99.90
2639;DHT22;1329;51.384;7.122;2024-01-30T06:56:17;10.00;99.90
2639;DHT22;1329;51.384;7.122;2024-01-30T06:58:47;10.00;99.90
2639;DHT22;1329;51.384;7.122;2024-01-30T07:01:14;10.00;99.90
2639;DHT22;1329;51.384;7.122;2024-01-30T07:03:41;10.00;99.90
2639;DHT22;1329;51.384;7.122;2024-01-30T07:06:08;10.00;99.90
2639;DHT22;1329;51.384;7.122;2024-01-30T07:08:36;10.00;99.90
2639;DHT22;1329;51.384;7.122;2024-01-30T07:11:04;10.00;99.90
2639;DHT22;1329;51.384;7.122;2024-01-30T07:13:31;10.00;99.90
2639;DHT22;1329;51.384;7.122;2024-01-30T07:16:00;10.10;99.90
2639;DHT22;1329;51.384;7.122;2024-01-30T07:18:27;10.00;99.90
2639;DHT22;1329;51.384;7.122;2024-01-30T07:20:53;10.00;99.90
2639;DHT22;1329;51.384;7.122;2024-01-30T07:23:20;10.10;99.90
2639;DHT22;1329;51.384;7.122;2024-01-30T07:25:48;10.10;99.90
2639;DHT22;1329;51.384;7.122;2024-01-30T07:28:15;10.10;99.90
2639;DHT22;1329;51.384;7.122;2024-01-30T07:30:43;10.10;99.90
2639;DHT22;1329;51.384;7.122;2024-01-30T07:33:11;10.10;99.90
2639;DHT22;1329;51.384;7.122;2024-01-30T07:35:38;10.10;99.90
2639;DHT22;1329;51.384;7.122;2024-01-30T07:38:05;10.20;99.90
2639;DHT22;1329;51.384;7.122;2024-01-30T07:40:32;10.20;99.90
2639;DHT22;1329;51.384;7.122;2024-01-30T07:42:59;10.20;99.90
2639;DHT22;1329;51.384;7.122;2024-01-30T07:45:28;10.20;99.90
2639;DHT22;1329;51.384;7.122;2024-01-30T07:47:58;10.30;99.90
2639;DHT22;1329;51.384;7.122;2024-01-30T07:50:27;10.30;99.90
2639;DHT22;1329;51.384;7.122;2024-01-30T07:52:55;10.30;99.90
2639;DHT22;1329;51.384;7.122;2024-01-30T07:55:22;10.40;99.90
2639;DHT22;1329;51.384;7.122;2024-01-30T07:57:51;10.40;99.90
2639;DHT22;1329;51.384;7.122;2024-01-30T08:00:18;10.40;99.90
2639;DHT22;1329;51.384;7.122;2024-01-30T08:02:45;10.50;99.90
2639;DHT22;1329;51.384;7.122;2024-01-30T08:05:12;10.50;99.90
2639;DHT22;1329;51.384;7.122;2024-01-30T08:07:42;10.60;99.90
2639;DHT22;1329;51.384;7.122;2024-01-30T08:10:11;10.60;99.90
2639;DHT22;1329;51.384;7.122;2024-01-30T08:12:38;10.70;99.90
2639;DHT22;1329;51.384;7.122;2024-01-30T08:15:05;10.70;99.90
2639;DHT22;1329;51.384;7.122;2024-01-30T08:17:33;10.80;99.90
2639;DHT22;1329;51.384;7.122;2024-01-30T08:19:59;10.90;99.90
2639;DHT22;1329;51.384;7.122;2024-01-30T08:22:26;10.90;99.90
2639;DHT22;1329;51.384;7.122;2024-01-30T08:24:55;10.90;99.90
2639;DHT22;1329;51.384;7.122;2024-01-30T08:27:22;11.00;99.90
2639;DHT22;1329;51.384;7.122;2024-01-30T08:29:49;11.00;99.90
2639;DHT22;1329;51.384;7.122;2024-01-30T08:32:16;11.00;99.90
2639;DHT22;1329;51.384;7.122;2024-01-30T08:34:43;11.10;99.90
2639;DHT22;1329;51.384;7.122;2024-01-30T08:37:09;11.10;99.90
2639;DHT22;1329;51.384;7.122;2024-01-30T08:39:38;11.10;99.90
2639;DHT22;1329;51.384;7.122;2024-01-30T08:42:06;11.20;99.90
2639;DHT22;1329;51.384;7.122;2024-01-30T08:44:33;11.20;99.90
2639;DHT22;1329;51.384;7.122;2024-01-30T08:47:00;11.20;99.90
2639;DHT22;1329;51.384;7.122;2024-01-30T08:49:26;11.30;99.90
2639;DHT22;1329;51.384;7.122;2024-01-30T08:51:53;11.30;99.90
2639;DHT22;1329;51.384;7.122;2024-01-30T08:54:20;11.30;99.90
2639;DHT22;1329;51.384;7.122;2024-01-30T08:56:47;11.30;99.90
2639;DHT22;1329;51.384;7.122;2024-01-30T08:59:15;11.40;99.90
2639;DHT22;1329;51.384;7.122;2024-01-30T09:01:42;11.40;99.90
2639;DHT22;1329;51.384;7.122;2024-01-30T09:04:09;11.40;99.90
2639;DHT22;1329;51.384;7.122;2024-01-30T09:06:36;11.50;99.90
2639;DHT22;1329;51.384;7.122;2024-01-30T09:09:04;11.50;99.90
2639;DHT22;1329;51.384;7.122;2024-01-30T09:11:32;11.50;99.90
2639;DHT22;1329;51.384;7.122;2024-01-30T09:13:59;11.60;99.90
2639;DHT22;1329;51.384;7.122;2024-01-30T09:16:27;11.60;99.90
2639;DHT22;1329;51.384;7.122;2024-01-30T09:18:54;11.60;99.90
2639;DHT22;1329;51.384;7.122;2024-01-30T09:21:21;11.70;99.90
2639;DHT22;1329;51.384;7.122;2024-01-30T09:23:48;11.70;99.90
2639;DHT22;1329;51.384;7.122;2024-01-30T09:26:15;11.70;99.90
2639;DHT22;1329;51.384;7.122;2024-01-30T09:28:42;11.70;99.90
2639;DHT22;1329;51.384;7.122;2024-01-30T09:31:11;11.70;99.90
2639;DHT22;1329;51.384;7.122;2024-01-30T09:33:40;11.70;99.90
2639;DHT22;1329;51.384;7.122;2024-01-30T09:36:09;11.70;99.90
2639;DHT22;1329;51.384;7.122;2024-01-30T09:38:36;11.70;99.90
2639;DHT22;1329;51.384;7.122;2024-01-30T09:41:06;11.80;99.90
2639;DHT22;1329;51.384;7.122;2024-01-30T09:43:37;11.80;99.90
2639;DHT22;1329;51.384;7.122;2024-01-30T09:46:05;11.70;99.90
2639;DHT22;1329;51.384;7.122;2024-01-30T09:48:35;11.80;99.90
2639;DHT22;1329;51.384;7.122;2024-01-30T09:51:03;11.80;99.90
2639;DHT22;1329;51.384;7.122;2024-01-30T09:53:31;11.90;99.90
2639;DHT22;1329;51.384;7.122;2024-01-30T09:55:58;11.90;99.90
2639;DHT22;1329;51.384;7.122;2024-01-30T09:58:25;11.90;99.90
2639;DHT22;1329;51.384;7.122;2024-01-30T10:00:51;12.00;99.90
2639;DHT22;1329;51.384;7.122;2024-01-30T10:03:19;12.00;99.90
2639;DHT22;1329;51.384;7.122;2024-01-30T10:05:51;12.00;99.90
2639;DHT22;1329;51.384;7.122;2024-01-30T10:08:20;12.10;99.90
2639;DHT22;1329;51.384;7.122;2024-01-30T10:10:47;12.10;99.90
2639;DHT22;1329;51.384;7.122;2024-01-30T10:13:14;12.10;99.90
2639;DHT22;1329;51.384;7.122;2024-01-30T10:15:41;12.20;99.90
2639;DHT22;1329;51.384;7.122;2024-01-30T10:18:08;12.10;99.90
2639;DHT22;1329;51.384;7.122;2024-01-30T10:20:35;12.20;99.90
2639;DHT22;1329;51.384;7.122;2024-01-30T10:23:03;12.20;99.90
2639;DHT22;1329;51.384;7.122;2024-01-30T10:25:32;12.20;99.90
2639;DHT22;1329;51.384;7.122;2024-01-30T10:27:59;12.20;99.90
2639;DHT22;1329;51.384;7.122;2024-01-30T10:30:27;12.30;99.90
2639;DHT22;1329;51.384;7.122;2024-01-30T10:32:54;12.30;99.90
2639;DHT22;1329;51.384;7.122;2024-01-30T10:35:21;12.30;99.90
2639;DHT22;1329;51.384;7.122;2024-01-30T10:37:48;12.30;99.90
2639;DHT22;1329;51.384;7.122;2024-01-30T10:40:16;12.30;99.90
2639;DHT22;1329;51.384;7.122;2024-01-30T10:42:45;12.40;99.90
2639;DHT22;1329;51.384;7.122;2024-01-30T10:45:13;12.40;99.90
2639;DHT22;1329;51.384;7.122;2024-01-30T10:47:43;12.50;99.90
2639;DHT22;1329;51.384;7.122;2024-01-30T10:50:15;12.60;99.90
2639;DHT22;1329;51.384;7.122;2024-01-30T10:52:43;12.70;99.90
2639;DHT22;1329;51.384;7.122;2024-01-30T10:55:10;12.80;99.90
2639;DHT22;1329;51.384;7.122;2024-01-30T10:57:37;12.90;99.90
2639;DHT22;1329;51.384;7.122;2024-01-30T11:00:08;13.00;99.90
2639;DHT22;1329;51.384;7.122;2024-01-30T11:02:39;13.00;99.90
2639;DHT22;1329;51.384;7.122;2024-01-30T11:05:08;13.10;99.90
2639;DHT22;1329;51.384;7.122;2024-01-30T11:07:35;13.20;99.90
2639;DHT22;1329;51.384;7.122;2024-01-30T11:10:03;13.30;99.90
2639;DHT22;1329;51.384;7.122;2024-01-30T11:12:33;13.30;99.90
2639;DHT22;1329;51.384;7.122;2024-01-30T11:15:09;13.40;99.90
2639;DHT22;1329;51.384;7.122;2024-01-30T11:17:43;13.50;99.90
2639;DHT22;1329;51.384;7.122;2024-01-30T11:20:14;13.60;99.90
2639;DHT22;1329;51.384;7.122;2024-01-30T11:22:44;13.60;99.90
2639;DHT22;1329;51.384;7.122;2024-01-30T11:25:12;13.70;99.90
2639;DHT22;1329;51.384;7.122;2024-01-30T11:27:41;13.80;99.90
2639;DHT22;1329;51.384;7.122;2024-01-30T11:30:10;13.80;99.90
2639;DHT22;1329;51.384;7.122;2024-01-30T11:32:37;13.90;99.90
2639;DHT22;1329;51.384;7.122;2024-01-30T11:35:05;13.90;99.90
2639;DHT22;1329;51.384;7.122;2024-01-30T11:37:37;13.90;99.90
2639;DHT22;1329;51.384;7.122;2024-01-30T11:40:05;14.00;99.90
2639;DHT22;1329;51.384;7.122;2024-01-30T11:42:34;14.00;99.90
2639;DHT22;1329;51.384;7.122;2024-01-30T11:45:05;14.00;99.90
2639;DHT22;1329;51.384;7.122;2024-01-30T11:47:36;14.10;99.90
2639;DHT22;1329;51.384;7.122;2024-01-30T11:50:03;14.10;99.90
2639;DHT22;1329;51.384;7.122;2024-01-30T11:52:32;14.10;99.90
2639;DHT22;1329;51.384;7.122;2024-01-30T11:55:00;14.10;99.90
2639;DHT22;1329;51.384;7.122;2024-01-30T11:57:27;14.10;99.90
2639;DHT22;1329;51.384;7.122;2024-01-30T11:59:53;14.10;99.90
2639;DHT22;1329;51.384;7.122;2024-01-30T12:02:20;14.10;99.90
2639;DHT22;1329;51.384;7.122;2024-01-30T12:04:49;14.10;99.90
2639;DHT22;1329;51.384;7.122;2024-01-30T12:07:15;14.10;99.90
2639;DHT22;1329;51.384;7.122;2024-01-30T12:09:51;14.10;99.90
2639;DHT22;1329;51.384;7.122;2024-01-30T12:12:18;14.10;99.90
2639;DHT22;1329;51.384;7.122;2024-01-30T12:14:46;14.10;99.90
2639;DHT22;1329;51.384;7.122;2024-01-30T12:17:23;14.10;99.90
2639;DHT22;1329;51.384;7.122;2024-01-30T12:20:02;14.00;99.90
2639;DHT22;1329;51.384;7.122;2024-01-30T12:22:33;14.00;99.90
2639;DHT22;1329;51.384;7.122;2024-01-30T12:25:02;14.00;99.90
2639;DHT22;1329;51.384;7.122;2024-01-30T12:27:30;13.90;99.90
2639;DHT22;1329;51.384;7.122;2024-01-30T12:29:57;13.90;99.90
2639;DHT22;1329;51.384;7.122;2024-01-30T12:32:24;13.90;99.90
2639;DHT22;1329;51.384;7.122;2024-01-30T12:34:56;13.80;99.90
2639;DHT22;1329;51.384;7.122;2024-01-30T12:37:24;13.80;99.90
2639;DHT22;1329;51.384;7.122;2024-01-30T12:39:52;13.80;99.90
2639;DHT22;1329;51.384;7.122;2024-01-30T12:42:20;13.70;99.90
2639;DHT22;1329;51.384;7.122;2024-01-30T12:44:48;13.70;99.90
2639;DHT22;1329;51.384;7.122;2024-01-30T12:47:15;13.70;99.90
2639;DHT22;1329;51.384;7.122;2024-01-30T12:49:42;13.70;99.90
2639;DHT22;1329;51.384;7.122;2024-01-30T12:52:11;13.60;99.90
2639;DHT22;1329;51.384;7.122;2024-01-30T12:54:38;13.60;99.90
2639;DHT22;1329;51.384;7.122;2024-01-30T12:57:05;13.60;99.90
2639;DHT22;1329;51.384;7.122;2024-01-30T12:59:32;13.60;99.90
2639;DHT22;1329;51.384;7.122;2024-01-30T13:02:00;13.60;99.90
2639;DHT22;1329;51.384;7.122;2024-01-30T13:04:29;13.60;99.90
2639;DHT22;1329;51.384;7.122;2024-01-30T13:06:55;13.60;99.90
2639;DHT22;1329;51.384;7.122;2024-01-30T13:09:24;13.50;99.90
2639;DHT22;1329;51.384;7.122;2024-01-30T13:11:51;13.50;99.90
2639;DHT22;1329;51.384;7.122;2024-01-30T13:14:18;13.50;99.90
2639;DHT22;1329;51.384;7.122;2024-01-30T13:16:45;13.50;99.90
2639;DHT22;1329;51.384;7.122;2024-01-30T13:19:12;13.50;99.90
2639;DHT22;1329;51.384;7.122;2024-01-30T13:21:39;13.40;99.90
2639;DHT22;1329;51.384;7.122;2024-01-30T13:24:06;13.40;99.90
2639;DHT22;1329;51.384;7.122;2024-01-30T13:26:35;13.40;99.90
2639;DHT22;1329;51.384;7.122;2024-01-30T13:29:02;13.30;99.90
2639;DHT22;1329;51.384;7.122;2024-01-30T13:31:30;13.30;99.90
2639;DHT22;1329;51.384;7.122;2024-01-30T13:33:56;13.30;99.90
2639;DHT22;1329;51.384;7.122;2024-01-30T13:36:25;13.30;99.90
2639;DHT22;1329;51.384;7.122;2024-01-30T13:38:52;13.20;99.90
2639;DHT22;1329;51.384;7.122;2024-01-30T13:41:19;13.20;99.90
2639;DHT22;1329;51.384;7.122;2024-01-30T13:43:49;13.20;99.90
2639;DHT22;1329;51.384;7.122;2024-01-30T13:46:16;13.20;99.90
2639;DHT22;1329;51.384;7.122;2024-01-30T13:48:43;13.20;99.90
2639;DHT22;1329;51.384;7.122;2024-01-30T13:51:10;13.20;99.90
2639;DHT22;1329;51.384;7.122;2024-01-30T13:53:38;13.10;99.90
2639;DHT22;1329;51.384;7.122;2024-01-30T13:56:05;13.10;99.90
2639;DHT22;1329;51.384;7.122;2024-01-30T13:58:33;13.10;99.90
2639;DHT22;1329;51.384;7.122;2024-01-30T14:01:03;13.10;99.90
2639;DHT22;1329;51.384;7.122;2024-01-30T14:03:30;13.10;99.90
2639;DHT22;1329;51.384;7.122;2024-01-30T14:05:57;13.10;99.90
2639;DHT22;1329;51.384;7.122;2024-01-30T14:08:24;13.10;99.90
2639;DHT22;1329;51.384;7.122;2024-01-30T14:10:53;13.10;99.90
2639;DHT22;1329;51.384;7.122;2024-01-30T14:13:20;13.00;99.90
2639;DHT22;1329;51.384;7.122;2024-01-30T14:15:48;13.10;99.90
2639;DHT22;1329;51.384;7.122;2024-01-30T14:18:16;13.10;99.90
2639;DHT22;1329;51.384;7.122;2024-01-30T14:20:44;13.10;99.90
2639;DHT22;1329;51.384;7.122;2024-01-30T14:23:10;13.10;99.90
2639;DHT22;1329;51.384;7.122;2024-01-30T14:25:37;13.10;99.90
2639;DHT22;1329;51.384;7.122;2024-01-30T14:28:05;13.10;99.90
2639;DHT22;1329;51.384;7.122;2024-01-30T14:30:35;13.20;99.90
2639;DHT22;1329;51.384;7.122;2024-01-30T14:33:02;13.20;99.90
2639;DHT22;1329;51.384;7.122;2024-01-30T14:35:31;13.20;99.90
2639;DHT22;1329;51.384;7.122;2024-01-30T14:37:59;13.30;99.90
2639;DHT22;1329;51.384;7.122;2024-01-30T14:40:26;13.30;99.90
2639;DHT22;1329;51.384;7.122;2024-01-30T14:42:53;13.30;99.90
2639;DHT22;1329;51.384;7.122;2024-01-30T14:45:20;13.40;99.90
2639;DHT22;1329;51.384;7.122;2024-01-30T14:47:47;13.40;99.90
2639;DHT22;1329;51.384;7.122;2024-01-30T14:50:14;13.40;99.90
2639;DHT22;1329;51.384;7.122;2024-01-30T14:52:43;13.40;99.90
2639;DHT22;1329;51.384;7.122;2024-01-30T14:55:10;13.30;99.90
2639;DHT22;1329;51.384;7.122;2024-01-30T14:57:37;13.40;99.90
2639;DHT22;1329;51.384;7.122;2024-01-30T15:00:05;13.40;99.90
2639;DHT22;1329;51.384;7.122;2024-01-30T15:02:34;13.40;99.90
2639;DHT22;1329;51.384;7.122;2024-01-30T15:05:01;13.40;99.90
2639;DHT22;1329;51.384;7.122;2024-01-30T15:07:28;13.40;99.90
2639;DHT22;1329;51.384;7.122;2024-01-30T15:09:56;13.40;99.90
2639;DHT22;1329;51.384;7.122;2024-01-30T15:12:24;13.40;99.90
2639;DHT22;1329;51.384;7.122;2024-01-30T15:14:50;13.40;99.90
2639;DHT22;1329;51.384;7.122;2024-01-30T15:17:17;13.40;99.90
2639;DHT22;1329;51.384;7.122;2024-01-30T15:19:46;13.30;99.90
2639;DHT22;1329;51.384;7.122;2024-01-30T15:22:13;13.30;99.90
2639;DHT22;1329;51.384;7.122;2024-01-30T15:24:40;13.30;99.90
2639;DHT22;1329;51.384;7.122;2024-01-30T15:27:08;13.20;99.90
2639;DHT22;1329;51.384;7.122;2024-01-30T15:29:35;13.20;99.90
2639;DHT22;1329;51.384;7.122;2024-01-30T15:32:03;13.20;99.90
2639;DHT22;1329;51.384;7.122;2024-01-30T15:34:31;13.20;99.90
2639;DHT22;1329;51.384;7.122;2024-01-30T15:36:58;13.10;99.90
2639;DHT22;1329;51.384;7.122;2024-01-30T15:39:25;13.10;99.90
2639;DHT22;1329;51.384;7.122;2024-01-30T15:41:52;13.10;99.90
2639;DHT22;1329;51.384;7.122;2024-01-30T15:44:20;13.10;99.90
2639;DHT22;1329;51.384;7.122;2024-01-30T15:46:47;13.10;99.90
2639;DHT22;1329;51.384;7.122;2024-01-30T15:49:14;13.10;99.90
2639;DHT22;1329;51.384;7.122;2024-01-30T15:51:41;13.00;99.90
2639;DHT22;1329;51.384;7.122;2024-01-30T15:54:08;13.10;99.90
2639;DHT22;1329;51.384;7.122;2024-01-30T15:56:35;13.00;99.90
2639;DHT22;1329;51.384;7.122;2024-01-30T15:59:02;13.00;99.90
2639;DHT22;1329;51.384;7.122;2024-01-30T16:01:30;13.00;99.90
2639;DHT22;1329;51.384;7.122;2024-01-30T16:03:57;12.90;99.90
2639;DHT22;1329;51.384;7.122;2024-01-30T16:06:24;12.90;99.90
2639;DHT22;1329;51.384;7.122;2024-01-30T16:08:51;12.90;99.90
2639;DHT22;1329;51.384;7.122;2024-01-30T16:11:18;12.90;99.90